createdAt,value
2022-09-27T00:00:26.850Z,3.90
2022-09-27T00:01:29.730Z,3.17
2022-09-27T00:02:31.341Z,3.67
2022-09-27T00:03:33.935Z,3.65
2022-09-27T00:04:35.545Z,2.90
2022-09-27T00:05:38.529Z,3.17
2022-09-27T00:06:41.110Z,2.75
2022-09-27T00:07:44.943Z,3.00
2022-09-27T00:08:46.475Z,3.25
2022-09-27T00:09:50.873Z,2.90
2022-09-27T00:11:00.460Z,3.50
2022-09-27T00:12:03.840Z,3.20
2022-09-27T00:13:05.491Z,2.95
2022-09-27T00:14:09.382Z,2.92
2022-09-27T00:15:12.671Z,3.38
2022-09-27T00:16:15.928Z,2.67
2022-09-27T00:17:17.596Z,2.53
2022-09-27T00:18:20.357Z,2.78
2022-09-27T00:19:24.347Z,3.25
2022-09-27T00:20:27.256Z,2.95
2022-09-27T00:21:31.000Z,2.97
2022-09-27T00:22:33.599Z,2.33
2022-09-27T00:23:36.745Z,3.13
2022-09-27T00:24:39.283Z,2.90
2022-09-27T00:25:42.264Z,3.80
2022-09-27T00:26:47.113Z,3.20
2022-09-27T00:27:49.800Z,3.08
2022-09-27T00:28:52.343Z,3.40
2022-09-27T00:29:55.409Z,3.40
2022-09-27T00:30:58.096Z,2.90
2022-09-27T00:32:00.467Z,2.90
2022-09-27T00:33:03.382Z,2.97
2022-09-27T00:34:06.226Z,3.38
2022-09-27T00:35:09.681Z,3.25
2022-09-27T00:36:11.567Z,2.97
2022-09-27T00:37:14.354Z,2.80
2022-09-27T00:38:16.278Z,2.67
2022-09-27T00:39:19.665Z,2.80
2022-09-27T00:40:24.386Z,2.50
2022-09-27T00:41:30.445Z,2.33
2022-09-27T00:42:32.580Z,3.35
2022-09-27T00:43:46.454Z,2.90
2022-09-27T00:45:05.100Z,2.55
2022-09-27T00:46:07.891Z,2.47
2022-09-27T00:47:14.090Z,2.42
2022-09-27T00:48:19.019Z,2.35
2022-09-27T00:49:27.246Z,2.38
2022-09-27T00:50:32.187Z,3.67
2022-09-27T00:51:36.810Z,2.80
2022-09-27T00:52:43.432Z,2.30
2022-09-27T00:53:51.542Z,2.20
2022-09-27T00:54:57.095Z,2.13
2022-09-27T00:56:02.836Z,2.45
2022-09-27T00:57:08.837Z,2.05
2022-09-27T00:58:14.311Z,2.35
2022-09-27T00:59:19.197Z,1.83
2022-09-27T01:00:22.739Z,2.00
2022-09-27T01:01:24.522Z,2.17
2022-09-27T01:02:27.680Z,2.42
2022-09-27T01:03:34.268Z,1.98
2022-09-27T01:04:38.574Z,2.20
2022-09-27T01:05:41.051Z,2.47
2022-09-27T01:06:43.995Z,2.13
2022-09-27T01:07:45.699Z,1.80
2022-09-27T01:08:48.943Z,2.05
2022-09-27T01:09:50.823Z,1.85
2022-09-27T01:10:59.397Z,1.83
2022-09-27T01:12:07.324Z,1.90
2022-09-27T01:13:14.734Z,2.60
2022-09-27T01:14:29.402Z,1.50
2022-09-27T01:15:37.056Z,1.80
2022-09-27T01:16:44.259Z,1.80
2022-09-27T01:17:55.656Z,1.80
2022-09-27T01:19:08.002Z,2.95
2022-09-27T01:20:26.829Z,3.33
2022-09-27T01:21:52.309Z,1.75
2022-09-27T01:23:04.419Z,1.67
2022-09-27T01:24:25.169Z,1.75
2022-09-27T01:25:44.798Z,2.10
2022-09-27T01:27:21.664Z,2.20
2022-09-27T01:28:33.046Z,1.60
2022-09-27T01:29:47.326Z,1.75
2022-09-27T01:30:54.016Z,1.67
2022-09-27T01:32:03.127Z,1.80
2022-09-27T01:33:14.400Z,2.05
2022-09-27T01:34:24.307Z,1.55
2022-09-27T01:35:30.953Z,2.10
2022-09-27T01:36:43.038Z,1.88
2022-09-27T01:37:49.516Z,1.95
2022-09-27T01:39:01.217Z,1.92
2022-09-27T01:40:09.384Z,2.10
2022-09-27T01:41:17.573Z,2.25
2022-09-27T01:42:22.588Z,2.25
2022-09-27T01:43:28.198Z,2.60
2022-09-27T01:44:33.993Z,1.90
2022-09-27T01:45:39.429Z,2.00
2022-09-27T01:46:45.545Z,2.80
2022-09-27T01:47:51.666Z,2.17
2022-09-27T01:48:54.526Z,2.03
2022-09-27T01:50:04.760Z,2.50
2022-09-27T01:51:08.696Z,2.83
2022-09-27T01:52:12.678Z,2.47
2022-09-27T01:53:18.479Z,2.15
2022-09-27T01:54:26.039Z,2.53
2022-09-27T01:55:31.568Z,2.10
2022-09-27T01:56:35.912Z,2.30
2022-09-27T01:57:39.464Z,2.35
2022-09-27T01:58:43.989Z,2.28
2022-09-27T01:59:47.767Z,2.75
2022-09-27T02:00:52.221Z,2.47
2022-09-27T02:01:59.698Z,2.42
2022-09-27T02:03:07.099Z,2.47
2022-09-27T02:04:12.973Z,2.28
2022-09-27T02:05:18.521Z,2.10
2022-09-27T02:06:23.424Z,2.25
2022-09-27T02:07:29.838Z,2.05
2022-09-27T02:08:36.667Z,3.25
2022-09-27T02:09:43.258Z,1.95
2022-09-27T02:10:45.908Z,2.70
2022-09-27T02:11:57.091Z,2.53
2022-09-27T02:13:06.441Z,3.20
2022-09-27T02:14:15.402Z,3.08
2022-09-27T02:15:19.875Z,3.00
2022-09-27T02:16:29.965Z,2.83
2022-09-27T02:17:39.001Z,2.90
2022-09-27T02:18:52.209Z,3.13
2022-09-27T02:20:00.893Z,2.47
2022-09-27T02:21:05.480Z,2.78
2022-09-27T02:22:16.582Z,2.70
2022-09-27T02:23:23.417Z,2.65
2022-09-27T02:24:34.037Z,2.55
2022-09-27T02:25:42.601Z,2.80
2022-09-27T02:26:46.685Z,2.92
2022-09-27T02:27:55.470Z,2.90
2022-09-27T02:29:03.166Z,3.03
2022-09-27T02:30:09.698Z,2.75
2022-09-27T02:31:16.492Z,3.10
2022-09-27T02:32:18.754Z,2.60
2022-09-27T02:33:26.712Z,2.28
2022-09-27T02:34:30.898Z,2.00
2022-09-27T02:35:35.382Z,2.28
2022-09-27T02:36:37.335Z,2.33
2022-09-27T02:37:39.855Z,2.40
2022-09-27T02:38:41.953Z,2.40
2022-09-27T02:39:45.363Z,2.00
2022-09-27T02:40:47.936Z,2.63
2022-09-27T02:41:50.511Z,2.53
2022-09-27T02:42:53.666Z,2.00
2022-09-27T02:43:59.095Z,2.63
2022-09-27T02:45:01.053Z,2.80
2022-09-27T02:46:14.569Z,2.05
2022-09-27T02:47:58.585Z,2.85
2022-09-27T02:49:14.006Z,2.70
2022-09-27T02:50:29.375Z,2.30
2022-09-27T02:51:44.472Z,2.38
2022-09-27T02:52:55.774Z,2.22
2022-09-27T02:54:08.886Z,2.70
2022-09-27T02:55:16.613Z,2.30
2022-09-27T02:56:26.788Z,1.90
2022-09-27T02:57:35.658Z,1.92
2022-09-27T02:58:48.915Z,1.80
2022-09-27T02:59:55.927Z,1.60
2022-09-27T03:01:05.892Z,1.98
2022-09-27T03:02:14.457Z,1.70
2022-09-27T03:03:22.352Z,1.45
2022-09-27T03:04:29.195Z,1.33
2022-09-27T03:05:34.573Z,1.50
2022-09-27T03:06:39.735Z,1.58
2022-09-27T03:07:41.423Z,1.55
2022-09-27T03:08:45.281Z,1.10
2022-09-27T03:09:49.350Z,1.27
2022-09-27T03:10:52.900Z,1.23
2022-09-27T03:11:54.664Z,1.17
2022-09-27T03:12:58.781Z,1.25
2022-09-27T03:14:08.740Z,1.10
2022-09-27T03:15:12.258Z,1.25
2022-09-27T03:16:15.996Z,1.20
2022-09-27T03:17:18.492Z,1.00
2022-09-27T03:18:20.085Z,1.20
2022-09-27T03:19:22.568Z,1.25
2022-09-27T03:20:25.681Z,1.13
2022-09-27T03:21:29.138Z,1.27
2022-09-27T03:22:30.666Z,1.40
2022-09-27T03:23:33.169Z,1.50
2022-09-27T03:24:34.705Z,1.40
2022-09-27T03:25:37.258Z,1.75
2022-09-27T03:26:38.847Z,1.30
2022-09-27T03:27:41.375Z,1.13
2022-09-27T03:28:42.966Z,1.70
2022-09-27T03:29:45.444Z,1.67
2022-09-27T03:30:47.320Z,1.85
2022-09-27T03:31:49.945Z,1.70
2022-09-27T03:32:51.488Z,2.20
2022-09-27T03:33:53.973Z,1.60
2022-09-27T03:34:55.533Z,1.67
2022-09-27T03:35:59.918Z,1.60
2022-09-27T03:37:02.515Z,1.33
2022-09-27T03:38:04.423Z,1.80
2022-09-27T03:39:06.892Z,1.85
2022-09-27T03:40:09.344Z,1.73
2022-09-27T03:41:12.032Z,2.00
2022-09-27T03:42:13.577Z,1.90
2022-09-27T03:43:16.093Z,1.85
2022-09-27T03:44:17.640Z,1.88
2022-09-27T03:45:20.125Z,2.80
2022-09-27T03:46:21.746Z,1.90
2022-09-27T03:47:24.279Z,2.08
2022-09-27T03:48:28.161Z,1.92
2022-09-27T03:49:32.443Z,2.00
2022-09-27T03:50:34.343Z,2.08
2022-09-27T03:51:42.461Z,2.38
2022-09-27T03:52:44.808Z,3.03
2022-09-27T03:53:47.843Z,2.50
2022-09-27T03:54:49.566Z,2.75
2022-09-27T03:55:52.088Z,2.28
2022-09-27T03:56:53.597Z,2.20
2022-09-27T03:57:56.085Z,2.03
2022-09-27T03:58:57.622Z,2.50
2022-09-27T04:00:00.334Z,2.50
2022-09-27T04:01:01.939Z,2.80
2022-09-27T04:02:04.532Z,2.42
2022-09-27T04:03:06.109Z,2.05
2022-09-27T04:04:11.221Z,2.25
2022-09-27T04:05:13.003Z,1.88
2022-09-27T04:06:15.504Z,1.88
2022-09-27T04:07:18.425Z,2.10
2022-09-27T04:08:22.164Z,2.50
2022-09-27T04:09:23.777Z,2.25
2022-09-27T04:10:26.429Z,2.25
2022-09-27T04:11:28.074Z,1.88
2022-09-27T04:12:30.645Z,2.45
2022-09-27T04:13:32.215Z,1.90
2022-09-27T04:14:34.753Z,2.13
2022-09-27T04:15:37.591Z,1.90
2022-09-27T04:16:41.130Z,2.45
2022-09-27T04:17:43.660Z,2.60
2022-09-27T04:18:46.666Z,2.30
2022-09-27T04:19:48.202Z,2.72
2022-09-27T04:20:50.663Z,2.30
2022-09-27T04:21:52.159Z,2.08
2022-09-27T04:22:55.948Z,2.15
2022-09-27T04:23:57.664Z,2.05
2022-09-27T04:25:00.144Z,2.30
2022-09-27T04:26:01.659Z,1.88
2022-09-27T04:27:04.152Z,1.90
2022-09-27T04:28:06.117Z,2.33
2022-09-27T04:29:09.717Z,1.67
2022-09-27T04:30:12.281Z,1.85
2022-09-27T04:31:14.810Z,2.03
2022-09-27T04:32:16.359Z,2.20
2022-09-27T04:33:18.943Z,1.73
2022-09-27T04:34:45.590Z,2.17
2022-09-27T04:36:06.145Z,1.73
2022-09-27T04:37:07.903Z,1.90
2022-09-27T04:38:14.280Z,1.63
2022-09-27T04:39:15.930Z,1.60
2022-09-27T04:40:20.108Z,2.50
2022-09-27T04:41:22.939Z,1.80
2022-09-27T04:42:28.571Z,1.85
2022-09-27T04:43:30.330Z,1.80
2022-09-27T04:44:32.804Z,1.75
2022-09-27T04:45:34.334Z,1.83
2022-09-27T04:46:36.860Z,1.58
2022-09-27T04:47:42.682Z,1.95
2022-09-27T04:48:45.171Z,1.83
2022-09-27T04:49:46.729Z,2.20
2022-09-27T04:50:49.447Z,1.52
2022-09-27T04:51:51.016Z,2.13
2022-09-27T04:52:54.416Z,1.70
2022-09-27T04:53:57.749Z,1.80
2022-09-27T04:55:00.231Z,2.00
2022-09-27T04:56:02.565Z,1.52
2022-09-27T04:57:05.227Z,2.05
2022-09-27T04:58:06.785Z,2.10
2022-09-27T04:59:10.971Z,2.00
2022-09-27T05:00:13.680Z,1.75
2022-09-27T05:01:16.305Z,1.70
2022-09-27T05:02:18.021Z,1.90
2022-09-27T05:03:20.545Z,2.05
2022-09-27T05:04:22.997Z,1.63
2022-09-27T05:05:25.499Z,1.48
2022-09-27T05:06:27.043Z,1.90
2022-09-27T05:07:30.221Z,1.65
2022-09-27T05:08:31.823Z,2.83
2022-09-27T05:09:35.660Z,1.80
2022-09-27T05:10:37.224Z,2.05
2022-09-27T05:11:39.720Z,1.80
2022-09-27T05:12:41.221Z,1.77
2022-09-27T05:13:43.809Z,2.17
2022-09-27T05:14:45.363Z,2.10
2022-09-27T05:15:47.866Z,2.00
2022-09-27T05:16:49.430Z,1.73
2022-09-27T05:17:52.203Z,2.75
2022-09-27T05:18:53.724Z,2.13
2022-09-27T05:19:56.210Z,3.17
2022-09-27T05:20:59.115Z,2.33
2022-09-27T05:22:01.611Z,2.10
2022-09-27T05:23:04.393Z,2.28
2022-09-27T05:24:07.050Z,3.10
2022-09-27T05:25:10.275Z,3.33
2022-09-27T05:26:13.118Z,2.72
2022-09-27T05:27:18.613Z,2.80
2022-09-27T05:28:21.143Z,2.60
2022-09-27T05:29:22.795Z,2.97
2022-09-27T05:30:25.516Z,3.17
2022-09-27T05:31:27.194Z,3.42
2022-09-27T05:32:30.294Z,3.70
2022-09-27T05:33:34.248Z,2.90
2022-09-27T05:34:35.823Z,3.03
2022-09-27T05:35:45.552Z,3.67
2022-09-27T05:36:47.626Z,4.10
2022-09-27T05:37:53.697Z,3.50
2022-09-27T05:38:56.195Z,3.92
2022-09-27T05:39:57.727Z,3.55
2022-09-27T05:41:01.652Z,3.40
2022-09-27T05:42:04.830Z,3.28
2022-09-27T05:43:07.332Z,3.67
2022-09-27T05:44:09.013Z,3.33
2022-09-27T05:45:12.233Z,3.35
2022-09-27T05:46:14.804Z,3.88
2022-09-27T05:47:16.407Z,3.63
2022-09-27T05:48:18.862Z,3.42
2022-09-27T05:49:20.424Z,4.10
2022-09-27T05:50:23.520Z,3.60
2022-09-27T05:51:25.160Z,4.18
2022-09-27T05:52:28.594Z,3.58
2022-09-27T05:53:30.359Z,4.55
2022-09-27T05:54:33.068Z,4.03
2022-09-27T05:55:34.672Z,3.42
2022-09-27T05:56:38.507Z,4.10
2022-09-27T05:57:40.060Z,4.15
2022-09-27T05:58:42.606Z,3.58
2022-09-27T05:59:44.206Z,3.92
2022-09-27T06:00:46.741Z,3.90
2022-09-27T06:01:48.322Z,3.75
2022-09-27T06:02:54.991Z,3.78
2022-09-27T06:03:57.496Z,4.55
2022-09-27T06:04:59.149Z,3.78
2022-09-27T06:06:04.070Z,4.20
2022-09-27T06:07:05.596Z,3.42
2022-09-27T06:08:09.630Z,4.18
2022-09-27T06:09:12.556Z,4.18
2022-09-27T06:10:15.267Z,3.97
2022-09-27T06:11:16.782Z,3.90
2022-09-27T06:12:20.644Z,3.33
2022-09-27T06:13:23.144Z,3.53
2022-09-27T06:14:24.753Z,3.60
2022-09-27T06:15:27.238Z,3.80
2022-09-27T06:16:28.849Z,3.50
2022-09-27T06:17:31.378Z,3.53
2022-09-27T06:18:32.941Z,3.00
2022-09-27T06:19:35.572Z,3.30
2022-09-27T06:20:38.833Z,3.25
2022-09-27T06:21:41.320Z,3.60
2022-09-27T06:22:42.824Z,3.47
2022-09-27T06:23:45.328Z,2.95
2022-09-27T06:24:47.105Z,4.03
2022-09-27T06:25:50.196Z,3.10
2022-09-27T06:26:51.772Z,3.50
2022-09-27T06:27:55.997Z,3.80
2022-09-27T06:28:58.484Z,3.00
2022-09-27T06:30:00.017Z,3.63
2022-09-27T06:31:02.646Z,3.67
2022-09-27T06:32:04.628Z,3.30
2022-09-27T06:33:07.577Z,3.55
2022-09-27T06:34:10.350Z,3.28
2022-09-27T06:35:12.196Z,2.83
2022-09-27T06:36:14.707Z,3.97
2022-09-27T06:37:16.340Z,3.88
2022-09-27T06:38:21.139Z,3.40
2022-09-27T06:39:22.715Z,3.50
2022-09-27T06:40:27.270Z,3.20
2022-09-27T06:41:30.032Z,3.28
2022-09-27T06:42:31.535Z,3.58
2022-09-27T06:43:35.441Z,3.72
2022-09-27T06:44:37.044Z,3.28
2022-09-27T06:45:39.985Z,2.95
2022-09-27T06:46:42.798Z,3.17
2022-09-27T06:47:44.382Z,2.65
2022-09-27T06:48:47.251Z,3.05
2022-09-27T06:49:49.408Z,3.80
2022-09-27T06:50:51.965Z,3.40
2022-09-27T06:51:54.694Z,3.50
2022-09-27T06:52:57.276Z,3.15
2022-09-27T06:53:59.745Z,3.10
2022-09-27T06:55:01.497Z,3.10
2022-09-27T06:56:04.289Z,3.30
2022-09-27T06:57:05.837Z,3.10
2022-09-27T06:58:24.732Z,3.58
2022-09-27T06:59:46.389Z,3.25
2022-09-27T07:00:50.391Z,3.10
2022-09-27T07:01:52.836Z,3.30
2022-09-27T07:03:01.253Z,3.15
2022-09-27T07:04:02.818Z,2.95
2022-09-27T07:05:13.162Z,3.03
2022-09-27T07:06:18.066Z,3.35
2022-09-27T07:07:20.691Z,3.28
2022-09-27T07:08:22.237Z,3.20
2022-09-27T07:09:24.843Z,3.00
2022-09-27T07:10:29.521Z,4.38
2022-09-27T07:11:33.063Z,3.38
2022-09-27T07:12:36.549Z,3.55
2022-09-27T07:13:42.792Z,3.08
2022-09-27T07:14:46.798Z,3.30
2022-09-27T07:15:48.324Z,2.92
2022-09-27T07:16:50.860Z,3.38
2022-09-27T07:17:56.725Z,2.60
2022-09-27T07:18:59.227Z,3.00
2022-09-27T07:20:01.216Z,2.88
2022-09-27T07:21:03.745Z,2.70
2022-09-27T07:22:06.435Z,3.05
2022-09-27T07:23:08.773Z,3.05
2022-09-27T07:24:11.246Z,2.78
2022-09-27T07:25:12.819Z,2.20
2022-09-27T07:26:15.332Z,1.30
2022-09-27T07:27:18.143Z,1.20
2022-09-27T07:28:21.985Z,1.30
2022-09-27T07:29:23.865Z,1.38
2022-09-27T07:30:27.904Z,1.85
2022-09-27T07:31:30.155Z,1.65
2022-09-27T07:32:32.665Z,1.35
2022-09-27T07:33:39.928Z,2.03
2022-09-27T07:34:44.971Z,1.60
2022-09-27T07:35:46.622Z,1.50
2022-09-27T07:36:49.114Z,2.05
2022-09-27T07:37:50.653Z,3.08
2022-09-27T07:38:53.307Z,1.80
2022-09-27T07:39:54.899Z,1.90
2022-09-27T07:40:57.440Z,2.00
2022-09-27T07:41:59.041Z,1.70
2022-09-27T07:43:01.536Z,1.70
2022-09-27T07:44:03.159Z,1.58
2022-09-27T07:45:09.223Z,1.70
2022-09-27T07:46:14.306Z,1.80
2022-09-27T07:47:16.923Z,2.00
2022-09-27T07:48:19.537Z,1.75
2022-09-27T07:49:21.080Z,1.90
2022-09-27T07:50:23.870Z,1.90
2022-09-27T07:51:26.385Z,1.95
2022-09-27T07:52:29.041Z,1.65
2022-09-27T07:53:30.619Z,1.90
2022-09-27T07:54:33.675Z,1.67
2022-09-27T07:55:35.224Z,2.08
2022-09-27T07:56:37.718Z,1.88
2022-09-27T07:57:39.355Z,1.95
2022-09-27T07:58:41.984Z,1.75
2022-09-27T07:59:43.607Z,1.88
2022-09-27T08:00:46.113Z,1.70
2022-09-27T08:01:49.934Z,1.90
2022-09-27T08:02:51.457Z,1.67
2022-09-27T08:03:53.955Z,1.60
2022-09-27T08:04:55.627Z,1.58
2022-09-27T08:05:58.161Z,1.30
2022-09-27T08:07:00.643Z,1.42
2022-09-27T08:08:02.457Z,1.23
2022-09-27T08:09:07.183Z,1.10
2022-09-27T08:10:09.787Z,1.30
2022-09-27T08:11:14.494Z,1.20
2022-09-27T08:12:16.148Z,1.13
2022-09-27T08:13:20.032Z,1.40
2022-09-27T08:14:23.321Z,1.10
2022-09-27T08:15:26.165Z,1.13
2022-09-27T08:16:28.739Z,1.25
2022-09-27T08:17:32.233Z,1.33
2022-09-27T08:18:34.818Z,1.02
2022-09-27T08:19:36.431Z,1.00
2022-09-27T08:20:40.009Z,1.30
2022-09-27T08:21:41.528Z,1.40
2022-09-27T08:22:44.896Z,0.90
2022-09-27T08:23:47.616Z,1.00
2022-09-27T08:24:49.633Z,1.00
2022-09-27T08:25:53.618Z,1.30
2022-09-27T08:26:55.597Z,1.00
2022-09-27T08:27:58.174Z,1.33
2022-09-27T08:28:59.717Z,1.02
2022-09-27T08:30:03.406Z,1.13
2022-09-27T08:31:06.128Z,1.13
2022-09-27T08:32:07.884Z,1.15
2022-09-27T08:33:12.373Z,0.95
2022-09-27T08:34:13.988Z,1.98
2022-09-27T08:35:16.819Z,1.27
2022-09-27T08:36:18.334Z,1.25
2022-09-27T08:37:20.908Z,1.13
2022-09-27T08:38:22.773Z,1.20
2022-09-27T08:39:25.362Z,1.33
2022-09-27T08:40:33.004Z,0.90
2022-09-27T08:41:38.859Z,1.20
2022-09-27T08:42:45.183Z,1.20
2022-09-27T08:43:52.778Z,1.15
2022-09-27T08:45:03.540Z,0.90
2022-09-27T08:46:14.101Z,1.10
2022-09-27T08:47:18.670Z,0.90
2022-09-27T08:48:23.445Z,0.90
2022-09-27T08:49:34.034Z,1.00
2022-09-27T08:50:40.255Z,0.90
2022-09-27T08:51:44.186Z,1.25
2022-09-27T08:52:50.251Z,1.08
2022-09-27T08:53:55.528Z,1.10
2022-09-27T08:54:58.512Z,1.20
2022-09-27T08:56:03.795Z,1.05
2022-09-27T08:57:13.913Z,1.20
2022-09-27T08:58:21.345Z,1.20
2022-09-27T08:59:27.065Z,1.20
2022-09-27T09:00:29.806Z,1.13
2022-09-27T09:01:32.521Z,1.13
2022-09-27T09:02:35.437Z,1.00
2022-09-27T09:03:46.754Z,0.90
2022-09-27T09:04:52.462Z,0.80
2022-09-27T09:06:08.330Z,1.00
2022-09-27T09:07:22.324Z,1.10
2022-09-27T09:08:31.581Z,1.00
2022-09-27T09:09:38.430Z,1.30
2022-09-27T09:11:07.775Z,1.00
2022-09-27T09:12:38.619Z,0.90
2022-09-27T09:13:52.109Z,1.00
2022-09-27T09:15:07.133Z,0.80
2022-09-27T09:16:15.808Z,0.90
2022-09-27T09:17:27.257Z,1.25
2022-09-27T09:18:45.653Z,1.15
2022-09-27T09:19:59.584Z,1.10
2022-09-27T09:21:07.486Z,0.98
2022-09-27T09:22:22.548Z,0.63
2022-09-27T09:23:40.634Z,1.10
2022-09-27T09:24:57.882Z,0.90
2022-09-27T09:26:02.254Z,0.98
2022-09-27T09:27:10.688Z,0.90
2022-09-27T09:28:23.357Z,0.95
2022-09-27T09:29:35.495Z,0.90
2022-09-27T09:30:45.677Z,0.90
2022-09-27T09:31:52.225Z,1.30
2022-09-27T09:33:15.033Z,1.20
2022-09-27T09:34:23.219Z,1.08
2022-09-27T09:35:26.560Z,0.95
2022-09-27T09:36:32.574Z,0.80
2022-09-27T09:37:37.135Z,0.85
2022-09-27T09:38:42.899Z,1.00
2022-09-27T09:39:46.448Z,0.70
2022-09-27T09:40:52.881Z,0.85
2022-09-27T09:42:04.599Z,0.90
2022-09-27T09:43:12.608Z,1.40
2022-09-27T09:44:20.027Z,0.95
2022-09-27T09:45:25.391Z,0.95
2022-09-27T09:46:32.404Z,1.15
2022-09-27T09:47:36.858Z,0.93
2022-09-27T09:48:44.172Z,0.93
2022-09-27T09:49:52.064Z,0.85
2022-09-27T09:50:56.409Z,1.00
2022-09-27T09:52:05.193Z,1.10
2022-09-27T09:53:16.312Z,1.08
2022-09-27T09:54:23.796Z,1.25
2022-09-27T09:55:29.102Z,0.80
2022-09-27T09:56:33.990Z,1.00
2022-09-27T09:57:41.826Z,1.35
2022-09-27T09:58:46.319Z,1.10
2022-09-27T09:59:52.789Z,0.90
2022-09-27T10:01:00.488Z,1.02
2022-09-27T10:02:17.131Z,1.05
2022-09-27T10:03:20.445Z,0.88
2022-09-27T10:04:25.437Z,1.27
2022-09-27T10:05:28.898Z,0.90
2022-09-27T10:06:32.184Z,0.85
2022-09-27T10:07:34.488Z,0.70
2022-09-27T10:08:37.053Z,0.88
2022-09-27T10:09:40.354Z,1.40
2022-09-27T10:10:42.837Z,1.15
2022-09-27T10:11:45.914Z,1.42
2022-09-27T10:12:48.855Z,0.90
2022-09-27T10:13:51.720Z,0.88
2022-09-27T10:14:53.935Z,0.80
2022-09-27T10:16:11.282Z,0.90
2022-09-27T10:17:16.132Z,1.95
2022-09-27T10:18:19.295Z,1.17
2022-09-27T10:19:27.316Z,1.05
2022-09-27T10:20:33.981Z,0.80
2022-09-27T10:21:39.810Z,0.85
2022-09-27T10:22:46.466Z,0.90
2022-09-27T10:24:04.539Z,0.75
2022-09-27T10:25:09.344Z,0.60
2022-09-27T10:26:11.282Z,0.70
2022-09-27T10:27:13.961Z,1.10
2022-09-27T10:28:33.230Z,0.80
2022-09-27T10:29:38.199Z,0.73
2022-09-27T10:30:39.944Z,0.73
2022-09-27T10:31:46.048Z,0.90
2022-09-27T10:32:51.529Z,0.90
2022-09-27T10:33:56.071Z,1.27
2022-09-27T10:35:30.579Z,0.73
2022-09-27T10:36:35.423Z,0.73
2022-09-27T10:37:37.970Z,0.68
2022-09-27T10:38:40.458Z,0.70
2022-09-27T10:39:42.071Z,0.80
2022-09-27T10:40:45.880Z,0.82
2022-09-27T10:41:47.477Z,1.00
2022-09-27T10:42:49.988Z,0.80
2022-09-27T10:43:51.575Z,0.90
2022-09-27T10:44:54.808Z,0.90
2022-09-27T10:46:09.459Z,1.00
2022-09-27T10:47:19.370Z,0.70
2022-09-27T10:48:23.274Z,1.00
2022-09-27T10:49:28.003Z,0.70
2022-09-27T10:50:50.682Z,1.15
2022-09-27T10:51:54.883Z,1.10
2022-09-27T10:53:05.129Z,1.27
2022-09-27T10:54:19.625Z,1.02
2022-09-27T10:55:24.940Z,0.90
2022-09-27T10:56:30.809Z,1.10
2022-09-27T10:57:33.476Z,1.15
2022-09-27T10:58:36.726Z,1.13
2022-09-27T10:59:42.399Z,1.33
2022-09-27T11:00:44.253Z,0.90
2022-09-27T11:01:50.038Z,1.23
2022-09-27T11:02:54.635Z,1.20
2022-09-27T11:03:59.402Z,0.90
2022-09-27T11:05:12.535Z,1.10
2022-09-27T11:06:29.566Z,1.20
2022-09-27T11:07:32.119Z,1.10
2022-09-27T11:08:35.886Z,1.20
2022-09-27T11:09:46.637Z,0.93
2022-09-27T11:11:02.637Z,0.95
2022-09-27T11:12:10.806Z,1.30
2022-09-27T11:13:14.261Z,0.98
2022-09-27T11:14:22.122Z,0.95
2022-09-27T11:15:24.627Z,0.90
2022-09-27T11:16:40.642Z,0.98
2022-09-27T11:17:50.170Z,0.65
2022-09-27T11:19:03.781Z,0.73
2022-09-27T11:20:17.953Z,1.02
2022-09-27T11:21:27.041Z,0.95
2022-09-27T11:22:50.585Z,0.90
2022-09-27T11:24:04.085Z,1.08
2022-09-27T11:25:14.669Z,0.80
2022-09-27T11:26:31.225Z,0.95
2022-09-27T11:27:42.892Z,0.70
2022-09-27T11:28:51.745Z,0.80
2022-09-27T11:30:04.215Z,0.90
2022-09-27T11:31:11.082Z,0.90
2022-09-27T11:32:20.535Z,0.70
2022-09-27T11:33:57.738Z,0.90
2022-09-27T11:35:23.850Z,0.60
2022-09-27T11:36:37.605Z,0.80
2022-09-27T11:37:44.786Z,0.75
2022-09-27T11:39:00.516Z,1.00
2022-09-27T11:40:14.970Z,0.90
2022-09-27T11:41:33.227Z,1.10
2022-09-27T11:43:02.808Z,1.23
2022-09-27T11:44:19.704Z,0.90
2022-09-27T11:45:41.143Z,1.20
2022-09-27T11:46:54.452Z,1.02
2022-09-27T11:48:04.050Z,0.90
2022-09-27T11:49:42.730Z,0.90
2022-09-27T11:51:00.671Z,1.00
2022-09-27T11:52:16.696Z,0.80
2022-09-27T11:53:31.956Z,0.82
2022-09-27T11:54:51.601Z,1.27
2022-09-27T11:55:58.988Z,0.90
2022-09-27T11:57:05.484Z,0.93
2022-09-27T11:58:15.691Z,0.82
2022-09-27T11:59:32.951Z,0.80
2022-09-27T12:00:47.970Z,1.00
2022-09-27T12:01:52.634Z,0.70
2022-09-27T12:03:31.716Z,1.17
2022-09-27T12:04:52.892Z,0.70
2022-09-27T12:06:07.453Z,0.75
2022-09-27T12:07:18.586Z,0.80
2022-09-27T12:08:32.421Z,0.70
2022-09-27T12:09:37.741Z,1.33
2022-09-27T12:10:40.564Z,0.70
2022-09-27T12:11:46.452Z,0.70
2022-09-27T12:12:52.174Z,0.70
2022-09-27T12:13:58.652Z,0.70
2022-09-27T12:15:06.698Z,0.73
2022-09-27T12:16:11.552Z,0.50
2022-09-27T12:17:18.425Z,0.60
2022-09-27T12:18:24.924Z,0.70
2022-09-27T12:19:30.771Z,0.70
2022-09-27T12:20:35.977Z,0.95
2022-09-27T12:21:38.623Z,0.77
2022-09-27T12:22:58.555Z,0.63
2022-09-27T12:24:03.401Z,0.80
2022-09-27T12:25:05.521Z,0.77
2022-09-27T12:26:11.536Z,0.90
2022-09-27T12:27:18.022Z,0.77
2022-09-27T12:28:28.436Z,0.98
2022-09-27T12:29:34.140Z,1.25
2022-09-27T12:30:38.975Z,0.75
2022-09-27T12:31:44.503Z,0.60
2022-09-27T12:32:53.881Z,0.60
2022-09-27T12:34:04.520Z,1.05
2022-09-27T12:35:11.601Z,0.70
2022-09-27T12:36:19.317Z,0.75
2022-09-27T12:37:25.228Z,0.75
2022-09-27T12:38:40.424Z,0.85
2022-09-27T12:39:49.357Z,0.68
2022-09-27T12:40:52.829Z,0.60
2022-09-27T12:42:02.060Z,0.57
2022-09-27T12:43:13.169Z,0.70
2022-09-27T12:44:15.157Z,0.50
2022-09-27T12:45:21.341Z,0.57
2022-09-27T12:46:31.932Z,0.55
2022-09-27T12:47:51.245Z,0.50
2022-09-27T12:49:00.259Z,0.50
2022-09-27T12:50:13.576Z,0.80
2022-09-27T12:51:17.793Z,0.80
2022-09-27T12:52:25.298Z,0.70
2022-09-27T12:53:31.299Z,0.80
2022-09-27T12:54:54.906Z,1.27
2022-09-27T12:56:11.815Z,0.82
2022-09-27T12:57:19.636Z,0.80
2022-09-27T12:58:33.185Z,0.95
2022-09-27T12:59:43.918Z,1.00
2022-09-27T13:00:49.738Z,0.65
2022-09-27T13:02:20.955Z,1.35
2022-09-27T13:03:37.044Z,1.00
2022-09-27T13:04:50.945Z,1.05
2022-09-27T13:06:06.367Z,0.90
2022-09-27T13:07:17.408Z,0.90
2022-09-27T13:08:31.509Z,0.95
2022-09-27T13:09:44.090Z,0.80
2022-09-27T13:10:53.133Z,1.00
2022-09-27T13:12:02.493Z,1.02
2022-09-27T13:13:06.151Z,1.00
2022-09-27T13:14:17.144Z,0.90
2022-09-27T13:15:22.458Z,1.10
2022-09-27T13:16:25.673Z,1.17
2022-09-27T13:17:54.198Z,1.30
2022-09-27T13:19:01.504Z,1.27
2022-09-27T13:20:38.432Z,1.48
2022-09-27T13:21:59.770Z,1.40
2022-09-27T13:23:02.337Z,1.30
2022-09-27T13:24:32.691Z,1.45
2022-09-27T13:25:55.867Z,1.20
2022-09-27T13:27:00.956Z,1.30
2022-09-27T13:28:03.789Z,1.08
2022-09-27T13:29:22.150Z,1.17
2022-09-27T13:30:48.995Z,0.90
2022-09-27T13:32:22.469Z,1.17
2022-09-27T13:33:44.314Z,0.90
2022-09-27T13:34:47.116Z,1.20
2022-09-27T13:36:07.930Z,1.30
2022-09-27T13:37:40.724Z,1.40
2022-09-27T13:38:55.024Z,1.10
2022-09-27T13:40:20.851Z,1.98
2022-09-27T13:41:23.588Z,1.27
2022-09-27T13:42:33.955Z,1.58
2022-09-27T13:43:44.814Z,1.42
2022-09-27T13:44:56.406Z,1.38
2022-09-27T13:45:59.016Z,1.10
2022-09-27T13:47:04.080Z,1.25
2022-09-27T13:48:11.057Z,1.20
2022-09-27T13:49:17.032Z,0.85
2022-09-27T13:50:24.572Z,1.15
2022-09-27T13:51:36.643Z,1.20
2022-09-27T13:52:38.765Z,1.08
2022-09-27T13:53:46.498Z,0.90
2022-09-27T13:54:53.333Z,1.00
2022-09-27T13:55:57.263Z,1.15
2022-09-27T13:56:59.332Z,0.93
2022-09-27T13:58:05.215Z,1.00
2022-09-27T13:59:11.641Z,1.10
2022-09-27T14:00:15.028Z,0.85
2022-09-27T14:01:25.887Z,1.00
2022-09-27T14:02:30.782Z,0.90
2022-09-27T14:03:35.644Z,1.08
2022-09-27T14:04:42.824Z,1.20
2022-09-27T14:05:48.183Z,1.08
2022-09-27T14:06:52.346Z,1.20
2022-09-27T14:07:55.410Z,1.05
2022-09-27T14:08:59.528Z,0.80
2022-09-27T14:10:01.367Z,1.05
2022-09-27T14:11:12.044Z,1.10
2022-09-27T14:12:19.127Z,1.20
2022-09-27T14:13:24.553Z,1.42
2022-09-27T14:14:31.428Z,0.82
2022-09-27T14:15:34.206Z,1.30
2022-09-27T14:16:41.282Z,0.80
2022-09-27T14:17:45.758Z,0.77
2022-09-27T14:18:53.591Z,0.80
2022-09-27T14:19:56.120Z,0.80
2022-09-27T14:21:12.057Z,0.95
2022-09-27T14:22:15.835Z,0.90
2022-09-27T14:23:21.344Z,1.10
2022-09-27T14:24:26.351Z,0.90
2022-09-27T14:25:28.889Z,0.80
2022-09-27T14:26:31.943Z,0.82
2022-09-27T14:27:36.744Z,0.98
2022-09-27T14:28:41.156Z,0.70
2022-09-27T14:29:46.662Z,0.70
2022-09-27T14:30:48.336Z,0.98
2022-09-27T14:32:04.620Z,0.77
2022-09-27T14:33:26.281Z,0.73
2022-09-27T14:34:28.867Z,0.90
2022-09-27T14:35:50.643Z,1.05
2022-09-27T14:37:11.269Z,0.90
2022-09-27T14:38:36.562Z,0.80
2022-09-27T14:39:38.770Z,0.55
2022-09-27T14:40:43.484Z,0.80
2022-09-27T14:41:47.730Z,0.60
2022-09-27T14:42:53.236Z,0.57
2022-09-27T14:43:56.249Z,0.77